Los Angeles International, CA

10:43 AM PDT on August 28, 2015 (GMT -0700)
E Walnut Ave El Segundo | | Change Station
CLOSE
Current Station
Personal Weather Station
Location: El Segundo, CA
Elevation: 121 ft
Nearby Weather Stations

Elev 121 ft 33.93 °N, 118.41 °W | Updated 15 seconds ago

Clear
Clear
83.5 °F
Feels Like 87 °F
N
3.4
Wind Variable Wind from SSW
Gusts 4.9 mph

Today
High -- | Low -- °F
--% Chance of Precip.
Yesterday
High -- | Low -- °F
Precip. -- in
6:24 AM 7:24 PM
Waxing Gibbous, 98% visible
Pressure 29.90 in
Visibility 8.0 miles
Clouds Clear
Heat Index 87 °F
Dew Point 69 °F
Humidity 62%
Rainfall 0.00 in
Snow Depth Not available.
UV 5.0 out of 12
Pollen 6.50 out of 12
Air Quality Not available.
Flu Activity Not available.
METAR KLAX 281653Z VRB04KT 8SM CLR 29/17 A2990 RMK AO2 SLP123 T02940172 $
Pressure 29.90 in
Visibility 8.0 miles
Clouds Clear
Heat Index 87 °F
Dew Point 69 °F
Humidity 62%
Rainfall 0.00 in
Snow Depth Not available.
UV 5.0 out of 12
Pollen 6.50 out of 12
Air Quality Not available.
Flu Activity Not available.
METAR KLAX 281653Z VRB04KT 8SM CLR 29/17 A2990 RMK AO2 SLP123 T02940172 $

10-Day Weather Forecast

×

Almanac

Astronomy

Aug. 28, 2015 Rise Set
Actual Time
Civil Twilight
Nautical Twilight
Astronomical Twilight
Moon
Length of Visible Light
Length of Day
Tomorrow will be .
, % of the Moon is Illuminated

Today's Extremes

State Highs State Lows

Community

WunderPhotos

Upload Photos

1,850,444 photos uploaded!

WunderBlogs® & News

Nearby

Air Quality

  Air Quality AQ Index Pollutant
Not available.

Snow Depth

Station Depth Elevation

Earthquake Activity

City Distance Mag. Time & Date
Minimum magnitude displayed is 2.5.

Coastal Water Temperatures

Place Temperature

Stations

Nearby Weather Stations

Station Location Temp. Windchill Dew Point Humidity Wind Precip. Elev Updated Type